Alto, New Mexico
Current Conditions -  °F | °C
As of 1:15 PM on Saturday 25 Oct 2014 (Local Time) from KSRR Reporting Station
Clear Clear  
Wind Chill: 23°   Ceiling: Unl
Heat Index: 23°   Visibility: 10mi
Dew Point:   Wind: 12mph
Humidity: 29%   Direction: 360°N
Pressure: 30.36"   Gusts: NA
Location:  33.39°N, 105.69°W
Report Text: KSRR 251915Z AUTO 36010KT 10SM CLR 23/04 A3036 RMK AO2
Loading
Personal Weather Stations






























Interactive Weather Map
Tropical Storm Tracking
New forecast layout! Learn more

10-Day Weather Forecast

Advertisements
Track Severe Weather on mobile